HFM380 EGCC-LPBJ
Flight info
| Callsign | HFM380 |
|---|---|
| Flight time | N/A |
| Altitude | 39000 |
| Route | SANBA N859 HON UN859 CPT/N0389F230 Y321 PEPIS/N0478F400 Q41 SAM N63 LELNA/N0482F410 DCT BALDA/N0388F230 N480 MAVOS M30 VES N872 RALUS UN872 ABETO DCT INLED |
| Aircraft | A388/J-SADE2E3FGHIJ3J4J5M1RWXYZ/LB1D1 |
Departure
| Time | N/A |
|---|---|
| Airport | Manchester Airport (EGCC) |
Arrival
| Time | 2026-04-14 22:59 |
|---|---|
| Airport | Beja Airport / Airbase (LPBJ) |
| Time | Latitude | Longitude | Altitude | Speed | Heading |
|---|---|---|---|---|---|
| 2026-04-14 21:11 | 50.40096 | -1.78317 | 39087 ft | 458 kts | 213° |
| 2026-04-14 21:12 | 50.34420 | -1.82739 | 39090 ft | 458 kts | 213° |
| 2026-04-14 21:12 | 50.28705 | -1.87179 | 39089 ft | 458 kts | 213° |
| 2026-04-14 21:13 | 50.22989 | -1.91607 | 39096 ft | 458 kts | 213° |
| 2026-04-14 21:13 | 50.17274 | -1.96023 | 39097 ft | 458 kts | 213° |
| 2026-04-14 21:14 | 50.08696 | -2.02630 | 39092 ft | 458 kts | 213° |
| 2026-04-14 21:14 | 50.02980 | -2.07018 | 39092 ft | 458 kts | 213° |
| 2026-04-14 21:15 | 49.97252 | -2.11401 | 39092 ft | 459 kts | 212° |
| 2026-04-14 21:15 | 49.91485 | -2.15538 | 39093 ft | 460 kts | 211° |
| 2026-04-14 21:16 | 49.85653 | -2.19656 | 39093 ft | 460 kts | 211° |
| 2026-04-14 21:16 | 49.79832 | -2.23801 | 39094 ft | 461 kts | 211° |
| 2026-04-14 21:17 | 49.74009 | -2.27949 | 39098 ft | 461 kts | 211° |
| 2026-04-14 21:17 | 49.68181 | -2.32091 | 39113 ft | 461 kts | 211° |
| 2026-04-14 21:18 | 49.62344 | -2.36225 | 39105 ft | 461 kts | 211° |
| 2026-04-14 21:18 | 49.56505 | -2.40345 | 39113 ft | 461 kts | 210° |
| 2026-04-14 21:19 | 49.50664 | -2.44457 | 39104 ft | 462 kts | 210° |
| 2026-04-14 21:19 | 49.44855 | -2.48535 | 39097 ft | 462 kts | 210° |
| 2026-04-14 21:20 | 49.39002 | -2.52634 | 39100 ft | 462 kts | 210° |
| 2026-04-14 21:20 | 49.33153 | -2.56718 | 39097 ft | 462 kts | 210° |
| 2026-04-14 21:21 | 49.27293 | -2.60800 | 39098 ft | 462 kts | 210° |
| 2026-04-14 21:21 | 49.21432 | -2.64872 | 39100 ft | 463 kts | 210° |
| 2026-04-14 21:22 | 49.15568 | -2.68936 | 39104 ft | 463 kts | 210° |
| 2026-04-14 21:22 | 49.09697 | -2.72993 | 39106 ft | 463 kts | 210° |
| 2026-04-14 21:23 | 49.03827 | -2.77039 | 39107 ft | 463 kts | 210° |
| 2026-04-14 21:23 | 48.97954 | -2.81077 | 39105 ft | 463 kts | 210° |
| 2026-04-14 21:24 | 48.92087 | -2.85100 | 39109 ft | 463 kts | 210° |
| 2026-04-14 21:24 | 48.86208 | -2.89121 | 39109 ft | 463 kts | 210° |
| 2026-04-14 21:25 | 48.80366 | -2.93106 | 39111 ft | 463 kts | 210° |
| 2026-04-14 21:25 | 48.74480 | -2.97112 | 39118 ft | 464 kts | 209° |
| 2026-04-14 21:26 | 48.68588 | -3.01110 | 39126 ft | 464 kts | 209° |
| 2026-04-14 21:26 | 48.62693 | -3.05102 | 39129 ft | 464 kts | 209° |
| 2026-04-14 21:27 | 48.56791 | -3.09087 | 39128 ft | 464 kts | 209° |
| 2026-04-14 21:27 | 48.50888 | -3.13061 | 39126 ft | 464 kts | 209° |
| 2026-04-14 21:28 | 48.44992 | -3.17022 | 39126 ft | 464 kts | 209° |
| 2026-04-14 21:28 | 48.39086 | -3.20979 | 39123 ft | 464 kts | 209° |
| 2026-04-14 21:29 | 48.33185 | -3.24923 | 39122 ft | 464 kts | 209° |
| 2026-04-14 21:29 | 48.27329 | -3.28827 | 39124 ft | 464 kts | 209° |
| 2026-04-14 21:30 | 48.21427 | -3.32752 | 39127 ft | 464 kts | 209° |
| 2026-04-14 21:30 | 48.15531 | -3.36662 | 39127 ft | 464 kts | 208° |
| 2026-04-14 21:31 | 48.09611 | -3.40580 | 39135 ft | 464 kts | 208° |
| 2026-04-14 21:31 | 48.03704 | -3.44478 | 39141 ft | 464 kts | 208° |
| 2026-04-14 21:32 | 47.97792 | -3.48370 | 39144 ft | 464 kts | 208° |
| 2026-04-14 21:32 | 47.91873 | -3.52256 | 39149 ft | 464 kts | 208° |
| 2026-04-14 21:33 | 47.85955 | -3.56132 | 39153 ft | 465 kts | 208° |
| 2026-04-14 21:33 | 47.80075 | -3.59974 | 39154 ft | 464 kts | 208° |
| 2026-04-14 21:34 | 47.74155 | -3.63832 | 39152 ft | 464 kts | 208° |
| 2026-04-14 21:34 | 47.68195 | -3.67707 | 39148 ft | 465 kts | 208° |
| 2026-04-14 21:35 | 47.62307 | -3.71525 | 39151 ft | 465 kts | 208° |
| 2026-04-14 21:35 | 47.56385 | -3.75357 | 39144 ft | 465 kts | 208° |
| 2026-04-14 21:36 | 47.50453 | -3.79184 | 39142 ft | 465 kts | 208° |
| 2026-04-14 21:36 | 47.44527 | -3.82999 | 39145 ft | 465 kts | 208° |
| 2026-04-14 21:37 | 47.38596 | -3.86807 | 39143 ft | 465 kts | 208° |
| 2026-04-14 21:37 | 47.32661 | -3.90608 | 39149 ft | 465 kts | 207° |
| 2026-04-14 21:38 | 47.26736 | -3.94394 | 39148 ft | 465 kts | 207° |
| 2026-04-14 21:38 | 47.20796 | -3.98180 | 39148 ft | 465 kts | 207° |
| 2026-04-14 21:39 | 47.15866 | -4.01315 | 39151 ft | 465 kts | 207° |
| 2026-04-14 21:39 | 47.09919 | -4.05090 | 39146 ft | 465 kts | 207° |
| 2026-04-14 21:40 | 47.03977 | -4.08850 | 39150 ft | 465 kts | 207° |
| 2026-04-14 21:40 | 46.98029 | -4.12606 | 39149 ft | 465 kts | 207° |
| 2026-04-14 21:41 | 46.92076 | -4.16356 | 39157 ft | 466 kts | 207° |
| 2026-04-14 21:41 | 46.86122 | -4.20098 | 39163 ft | 465 kts | 207° |
| 2026-04-14 21:42 | 46.80175 | -4.23825 | 39161 ft | 465 kts | 207° |
| 2026-04-14 21:42 | 46.74250 | -4.27531 | 39165 ft | 465 kts | 207° |
| 2026-04-14 21:43 | 46.68306 | -4.31239 | 39165 ft | 465 kts | 207° |
| 2026-04-14 21:43 | 46.62364 | -4.34937 | 39167 ft | 465 kts | 207° |
| 2026-04-14 21:44 | 46.56414 | -4.38632 | 39163 ft | 464 kts | 207° |
| 2026-04-14 21:44 | 46.50468 | -4.42314 | 39169 ft | 464 kts | 207° |
| 2026-04-14 21:45 | 46.44523 | -4.45988 | 39170 ft | 464 kts | 207° |
| 2026-04-14 21:45 | 46.38618 | -4.49628 | 39166 ft | 464 kts | 207° |
| 2026-04-14 21:46 | 46.32674 | -4.53284 | 39168 ft | 464 kts | 207° |
| 2026-04-14 21:46 | 46.26729 | -4.56931 | 39169 ft | 464 kts | 207° |
| 2026-04-14 21:47 | 46.20771 | -4.60578 | 39171 ft | 465 kts | 207° |
| 2026-04-14 21:47 | 46.14810 | -4.64219 | 39178 ft | 465 kts | 207° |
| 2026-04-14 21:48 | 46.08844 | -4.67853 | 39183 ft | 465 kts | 207° |
| 2026-04-14 21:48 | 46.02880 | -4.71477 | 39184 ft | 465 kts | 207° |
| 2026-04-14 21:49 | 45.96912 | -4.75096 | 39187 ft | 465 kts | 207° |
| 2026-04-14 21:49 | 45.90945 | -4.78706 | 39186 ft | 465 kts | 207° |
| 2026-04-14 21:50 | 45.85012 | -4.82286 | 39189 ft | 465 kts | 207° |
| 2026-04-14 21:50 | 45.79036 | -4.85884 | 39182 ft | 466 kts | 207° |
| 2026-04-14 21:51 | 45.73065 | -4.89471 | 39187 ft | 466 kts | 207° |
| 2026-04-14 21:51 | 45.67078 | -4.93059 | 39190 ft | 466 kts | 207° |
| 2026-04-14 21:52 | 45.61086 | -4.96642 | 39192 ft | 466 kts | 207° |
| 2026-04-14 21:52 | 45.55102 | -5.00211 | 39198 ft | 466 kts | 207° |
| 2026-04-14 21:53 | 45.49119 | -5.03772 | 39197 ft | 466 kts | 207° |
| 2026-04-14 21:53 | 45.43131 | -5.07328 | 39205 ft | 466 kts | 207° |
| 2026-04-14 21:54 | 45.37190 | -5.10847 | 39197 ft | 465 kts | 207° |
| 2026-04-14 21:54 | 45.31205 | -5.14385 | 39187 ft | 466 kts | 207° |
| 2026-04-14 21:55 | 45.25225 | -5.17911 | 39186 ft | 466 kts | 207° |
| 2026-04-14 21:55 | 45.19242 | -5.21431 | 39201 ft | 465 kts | 207° |
| 2026-04-14 21:56 | 45.13256 | -5.24945 | 39206 ft | 465 kts | 207° |
| 2026-04-14 21:56 | 45.07270 | -5.28451 | 39208 ft | 465 kts | 207° |
| 2026-04-14 21:57 | 45.01293 | -5.31944 | 39209 ft | 465 kts | 207° |
| 2026-04-14 21:57 | 44.95310 | -5.35432 | 39207 ft | 465 kts | 207° |
| 2026-04-14 21:58 | 44.89368 | -5.38889 | 39211 ft | 465 kts | 207° |
| 2026-04-14 21:58 | 44.83389 | -5.42359 | 39213 ft | 464 kts | 207° |
| 2026-04-14 21:59 | 44.77413 | -5.45823 | 39214 ft | 464 kts | 207° |
| 2026-04-14 21:59 | 44.71433 | -5.49283 | 39214 ft | 464 kts | 207° |
| 2026-04-14 22:00 | 44.65447 | -5.52732 | 39560 ft | 470 kts | 212° |
| 2026-04-14 22:00 | 44.62396 | -5.54505 | 39110 ft | 471 kts | 207° |
| 2026-04-14 22:00 | 44.59388 | -5.56254 | 39222 ft | 466 kts | 208° |
| 2026-04-14 22:01 | 44.53616 | -5.60256 | 39224 ft | 461 kts | 212° |
| 2026-04-14 22:01 | 44.47872 | -5.64348 | 39222 ft | 463 kts | 211° |
| 2026-04-14 22:02 | 44.42095 | -5.68363 | 39225 ft | 464 kts | 211° |
| 2026-04-14 22:02 | 44.36335 | -5.72329 | 39223 ft | 464 kts | 211° |
| 2026-04-14 22:03 | 44.30535 | -5.76312 | 39215 ft | 465 kts | 211° |
| 2026-04-14 22:03 | 44.24730 | -5.80291 | 39216 ft | 465 kts | 211° |
| 2026-04-14 22:04 | 44.18923 | -5.84264 | 39202 ft | 465 kts | 211° |
| 2026-04-14 22:04 | 44.13114 | -5.88228 | 39217 ft | 465 kts | 211° |
| 2026-04-14 22:05 | 44.07156 | -5.91813 | 39203 ft | 470 kts | 204° |
| 2026-04-14 22:05 | 44.00773 | -5.94084 | 39212 ft | 477 kts | 194° |
| 2026-04-14 22:06 | 43.94133 | -5.95139 | 39210 ft | 481 kts | 191° |
| 2026-04-14 22:06 | 43.87463 | -5.96092 | 39218 ft | 482 kts | 191° |
| 2026-04-14 22:07 | 43.80776 | -5.97068 | 39206 ft | 484 kts | 191° |
| 2026-04-14 22:07 | 43.74102 | -5.98041 | 39230 ft | 486 kts | 191° |
| 2026-04-14 22:08 | 43.67369 | -5.99019 | 39235 ft | 487 kts | 191° |
| 2026-04-14 22:08 | 43.60620 | -6.00072 | 39244 ft | 486 kts | 194° |
| 2026-04-14 22:09 | 43.54097 | -6.02323 | 39242 ft | 480 kts | 204° |
| 2026-04-14 22:09 | 43.48021 | -6.06013 | 39251 ft | 475 kts | 212° |
| 2026-04-14 22:10 | 43.42144 | -6.10174 | 39247 ft | 476 kts | 212° |
| 2026-04-14 22:10 | 43.36277 | -6.14267 | 39247 ft | 476 kts | 212° |
| 2026-04-14 22:11 | 43.30368 | -6.18370 | 39244 ft | 476 kts | 212° |
| 2026-04-14 22:11 | 43.24451 | -6.22472 | 39251 ft | 477 kts | 212° |
| 2026-04-14 22:12 | 43.18517 | -6.26577 | 39248 ft | 478 kts | 212° |
| 2026-04-14 22:12 | 43.12582 | -6.30673 | 39257 ft | 477 kts | 212° |
| 2026-04-14 22:13 | 43.06657 | -6.34807 | 39252 ft | 477 kts | 213° |
| 2026-04-14 22:13 | 43.00770 | -6.38994 | 39243 ft | 476 kts | 213° |
| 2026-04-14 22:14 | 42.94877 | -6.43162 | 39227 ft | 477 kts | 213° |
| 2026-04-14 22:14 | 42.88987 | -6.47311 | 39229 ft | 477 kts | 212° |
| 2026-04-14 22:15 | 42.83080 | -6.51460 | 39235 ft | 478 kts | 213° |
| 2026-04-14 22:15 | 42.77164 | -6.55597 | 39225 ft | 478 kts | 212° |
| 2026-04-14 22:16 | 42.71224 | -6.59670 | 39228 ft | 479 kts | 212° |
| 2026-04-14 22:16 | 42.65300 | -6.63723 | 39232 ft | 480 kts | 212° |
| 2026-04-14 22:17 | 42.59294 | -6.67830 | 39227 ft | 481 kts | 212° |
| 2026-04-14 22:17 | 42.53308 | -6.71918 | 39252 ft | 482 kts | 212° |
| 2026-04-14 22:18 | 42.47310 | -6.76003 | 39254 ft | 483 kts | 212° |
| 2026-04-14 22:18 | 42.41335 | -6.80066 | 39262 ft | 483 kts | 212° |
| 2026-04-14 22:19 | 42.32316 | -6.86181 | 39264 ft | 484 kts | 212° |
| 2026-04-14 22:20 | 42.26282 | -6.90260 | 39261 ft | 484 kts | 212° |
| 2026-04-14 22:20 | 42.20250 | -6.94329 | 39263 ft | 485 kts | 212° |
| 2026-04-14 22:21 | 42.14178 | -6.98330 | 39264 ft | 486 kts | 211° |
| 2026-04-14 22:21 | 42.08080 | -7.02282 | 39264 ft | 486 kts | 211° |
| 2026-04-14 22:22 | 42.01986 | -7.06237 | 39262 ft | 487 kts | 211° |
| 2026-04-14 22:22 | 41.95877 | -7.10201 | 39247 ft | 488 kts | 211° |
| 2026-04-14 22:23 | 41.89759 | -7.14163 | 39261 ft | 488 kts | 211° |
| 2026-04-14 22:23 | 41.83631 | -7.18119 | 39253 ft | 489 kts | 211° |
| 2026-04-14 22:24 | 41.77485 | -7.22079 | 39267 ft | 490 kts | 211° |
| 2026-04-14 22:24 | 41.71334 | -7.26034 | 39261 ft | 491 kts | 211° |
| 2026-04-14 22:25 | 41.65167 | -7.29994 | 39269 ft | 491 kts | 211° |
| 2026-04-14 22:25 | 41.59037 | -7.33923 | 39268 ft | 492 kts | 211° |
| 2026-04-14 22:26 | 41.52858 | -7.37874 | 39275 ft | 492 kts | 211° |
| 2026-04-14 22:26 | 41.47664 | -7.41188 | 39272 ft | 493 kts | 211° |
| 2026-04-14 22:27 | 41.41518 | -7.45101 | 39274 ft | 493 kts | 211° |
| 2026-04-14 22:27 | 41.35330 | -7.49032 | 39274 ft | 493 kts | 211° |
| 2026-04-14 22:28 | 41.29125 | -7.52966 | 39275 ft | 494 kts | 211° |
| 2026-04-14 22:28 | 41.22906 | -7.56900 | 39269 ft | 494 kts | 211° |
| 2026-04-14 22:29 | 41.16701 | -7.60815 | 39270 ft | 494 kts | 211° |
| 2026-04-14 22:29 | 41.10480 | -7.64735 | 39271 ft | 495 kts | 211° |
| 2026-04-14 22:30 | 41.04256 | -7.68647 | 39284 ft | 496 kts | 211° |
| 2026-04-14 22:30 | 40.98009 | -7.72565 | 39283 ft | 497 kts | 211° |
| 2026-04-14 22:31 | 40.91776 | -7.76466 | 39293 ft | 498 kts | 211° |
| 2026-04-14 22:31 | 40.85510 | -7.80381 | 39290 ft | 498 kts | 211° |
| 2026-04-14 22:32 | 40.79243 | -7.84286 | 39302 ft | 498 kts | 211° |
| 2026-04-14 22:32 | 40.72961 | -7.88193 | 39290 ft | 499 kts | 211° |
| 2026-04-14 22:33 | 40.66624 | -7.91977 | 39298 ft | 500 kts | 209° |
| 2026-04-14 22:33 | 40.60280 | -7.95621 | 39288 ft | 501 kts | 209° |
| 2026-04-14 22:34 | 40.53890 | -7.99314 | 39291 ft | 501 kts | 209° |
| 2026-04-14 22:34 | 40.47471 | -8.02920 | 39288 ft | 505 kts | 205° |
| 2026-04-14 22:35 | 40.40539 | -8.04964 | 39290 ft | 517 kts | 190° |
| 2026-04-14 22:35 | 40.33288 | -8.04872 | 39284 ft | 524 kts | 180° |
| 2026-04-14 22:36 | 40.25996 | -8.04245 | 39274 ft | 525 kts | 180° |
| 2026-04-14 22:36 | 40.22364 | -8.03947 | 39084 ft | 521 kts | 180° |
| 2026-04-14 22:36 | 40.18754 | -8.03653 | 38833 ft | 519 kts | 180° |
| 2026-04-14 22:36 | 40.15140 | -8.03360 | 38541 ft | 519 kts | 180° |
| 2026-04-14 22:37 | 40.11541 | -8.03070 | 38266 ft | 520 kts | 180° |
| 2026-04-14 22:37 | 40.07921 | -8.02777 | 38002 ft | 522 kts | 180° |
| 2026-04-14 22:37 | 40.04336 | -8.02488 | 37723 ft | 524 kts | 180° |
| 2026-04-14 22:37 | 40.00695 | -8.02193 | 37208 ft | 523 kts | 180° |
| 2026-04-14 22:38 | 39.97066 | -8.01898 | 36343 ft | 525 kts | 179° |
| 2026-04-14 22:38 | 39.93393 | -8.01601 | 35281 ft | 530 kts | 179° |
| 2026-04-14 22:38 | 39.89682 | -8.01302 | 34114 ft | 538 kts | 179° |
| 2026-04-14 22:38 | 39.85935 | -8.00999 | 33082 ft | 538 kts | 179° |
| 2026-04-14 22:39 | 39.82217 | -8.00697 | 32397 ft | 531 kts | 179° |
| 2026-04-14 22:39 | 39.78567 | -8.00400 | 31860 ft | 522 kts | 178° |
| 2026-04-14 22:39 | 39.74954 | -8.00108 | 31099 ft | 519 kts | 178° |
| 2026-04-14 22:39 | 39.71368 | -7.99820 | 30354 ft | 515 kts | 178° |
| 2026-04-14 22:40 | 39.67795 | -7.99533 | 29548 ft | 511 kts | 178° |
| 2026-04-14 22:40 | 39.64269 | -7.99249 | 28823 ft | 505 kts | 178° |
| 2026-04-14 22:40 | 39.60780 | -7.98969 | 28077 ft | 500 kts | 178° |
| 2026-04-14 22:40 | 39.57331 | -7.98693 | 27353 ft | 495 kts | 178° |
| 2026-04-14 22:41 | 39.53914 | -7.98420 | 26625 ft | 490 kts | 178° |
| 2026-04-14 22:41 | 39.50529 | -7.98149 | 25899 ft | 485 kts | 178° |
| 2026-04-14 22:41 | 39.47219 | -7.97884 | 25186 ft | 481 kts | 178° |
| 2026-04-14 22:41 | 39.43889 | -7.97619 | 24467 ft | 477 kts | 178° |
| 2026-04-14 22:42 | 39.40586 | -7.97356 | 23729 ft | 473 kts | 178° |
| 2026-04-14 22:42 | 39.37316 | -7.97095 | 22950 ft | 468 kts | 178° |
| 2026-04-14 22:42 | 39.34092 | -7.96839 | 22232 ft | 461 kts | 178° |
| 2026-04-14 22:42 | 39.30912 | -7.96586 | 21536 ft | 454 kts | 178° |
| 2026-04-14 22:43 | 39.27777 | -7.96336 | 20824 ft | 448 kts | 178° |
| 2026-04-14 22:43 | 39.24687 | -7.96092 | 20135 ft | 442 kts | 177° |
| 2026-04-14 22:43 | 39.21635 | -7.95850 | 19448 ft | 437 kts | 177° |
| 2026-04-14 22:43 | 39.18616 | -7.95612 | 18754 ft | 431 kts | 177° |
| 2026-04-14 22:44 | 39.15638 | -7.95376 | 18012 ft | 426 kts | 177° |
| 2026-04-14 22:44 | 39.12709 | -7.95144 | 17334 ft | 419 kts | 177° |
| 2026-04-14 22:44 | 39.10706 | -7.94985 | 16869 ft | 414 kts | 177° |
| 2026-04-14 22:44 | 39.09969 | -7.94927 | 16691 ft | 412 kts | 177° |
| 2026-04-14 22:45 | 39.07158 | -7.94705 | 16053 ft | 406 kts | 177° |
| 2026-04-14 22:45 | 39.04387 | -7.94486 | 15793 ft | 391 kts | 177° |
| 2026-04-14 22:45 | 39.01735 | -7.94276 | 15616 ft | 374 kts | 177° |
| 2026-04-14 22:45 | 38.99186 | -7.94075 | 15473 ft | 359 kts | 177° |
| 2026-04-14 22:46 | 38.96743 | -7.93882 | 15344 ft | 345 kts | 177° |
| 2026-04-14 22:46 | 38.94392 | -7.93697 | 15184 ft | 334 kts | 177° |
| 2026-04-14 22:46 | 38.92074 | -7.93516 | 14730 ft | 334 kts | 177° |
| 2026-04-14 22:46 | 38.89764 | -7.93335 | 14301 ft | 331 kts | 177° |
| 2026-04-14 22:47 | 38.87470 | -7.93155 | 13695 ft | 328 kts | 177° |
| 2026-04-14 22:47 | 38.85194 | -7.92977 | 13077 ft | 325 kts | 177° |
| 2026-04-14 22:47 | 38.82950 | -7.92801 | 12474 ft | 321 kts | 177° |
| 2026-04-14 22:47 | 38.80727 | -7.92626 | 11869 ft | 319 kts | 178° |
| 2026-04-14 22:48 | 38.78528 | -7.92454 | 11290 ft | 315 kts | 178° |
| 2026-04-14 22:48 | 38.76347 | -7.92283 | 10703 ft | 313 kts | 178° |
| 2026-04-14 22:48 | 38.74181 | -7.92114 | 10120 ft | 310 kts | 178° |
| 2026-04-14 22:48 | 38.72066 | -7.91949 | 9619 ft | 307 kts | 178° |
| 2026-04-14 22:49 | 38.69937 | -7.91782 | 9135 ft | 307 kts | 178° |
| 2026-04-14 22:49 | 38.67809 | -7.91617 | 8668 ft | 305 kts | 178° |
| 2026-04-14 22:49 | 38.65685 | -7.91451 | 8235 ft | 305 kts | 178° |
| 2026-04-14 22:49 | 38.63591 | -7.91288 | 7899 ft | 299 kts | 178° |
| 2026-04-14 22:50 | 38.61528 | -7.91126 | 7538 ft | 295 kts | 178° |
| 2026-04-14 22:50 | 38.59487 | -7.90967 | 7185 ft | 293 kts | 178° |
| 2026-04-14 22:50 | 38.57459 | -7.90810 | 6827 ft | 291 kts | 178° |
| 2026-04-14 22:50 | 38.55452 | -7.90654 | 6460 ft | 288 kts | 178° |
| 2026-04-14 22:51 | 38.53460 | -7.90499 | 6099 ft | 285 kts | 178° |
| 2026-04-14 22:51 | 38.51483 | -7.90345 | 5733 ft | 283 kts | 178° |
| 2026-04-14 22:51 | 38.49522 | -7.90193 | 5376 ft | 281 kts | 178° |
| 2026-04-14 22:51 | 38.47578 | -7.90042 | 5000 ft | 279 kts | 178° |
| 2026-04-14 22:52 | 38.45616 | -7.89890 | 4465 ft | 283 kts | 178° |
| 2026-04-14 22:52 | 38.43668 | -7.89738 | 4300 ft | 280 kts | 178° |
| 2026-04-14 22:52 | 38.41724 | -7.89588 | 4174 ft | 280 kts | 178° |
| 2026-04-14 22:52 | 38.39780 | -7.89438 | 4047 ft | 278 kts | 178° |
| 2026-04-14 22:53 | 38.37848 | -7.89298 | 4012 ft | 277 kts | 181° |
| 2026-04-14 22:53 | 38.35952 | -7.89480 | 3834 ft | 278 kts | 189° |
| 2026-04-14 22:53 | 38.34048 | -7.89760 | 3706 ft | 269 kts | 188° |
| 2026-04-14 22:53 | 38.32242 | -7.90015 | 3703 ft | 253 kts | 188° |
| 2026-04-14 22:54 | 38.30529 | -7.90244 | 3616 ft | 243 kts | 188° |
| 2026-04-14 22:54 | 38.28880 | -7.90464 | 3548 ft | 234 kts | 188° |
| 2026-04-14 22:54 | 38.27290 | -7.90675 | 3469 ft | 225 kts | 188° |
| 2026-04-14 22:54 | 38.25766 | -7.90876 | 3417 ft | 214 kts | 188° |
| 2026-04-14 22:55 | 38.24324 | -7.91067 | 3335 ft | 199 kts | 188° |
| 2026-04-14 22:55 | 38.23002 | -7.91242 | 2983 ft | 188 kts | 188° |
| 2026-04-14 22:55 | 38.21707 | -7.91416 | 2731 ft | 187 kts | 189° |
| 2026-04-14 22:55 | 38.20417 | -7.91586 | 2699 ft | 186 kts | 189° |
| 2026-04-14 22:56 | 38.19138 | -7.91754 | 2647 ft | 181 kts | 189° |
| 2026-04-14 22:56 | 38.17909 | -7.91917 | 2365 ft | 173 kts | 189° |
| 2026-04-14 22:56 | 38.16725 | -7.92074 | 2134 ft | 166 kts | 190° |
| 2026-04-14 22:56 | 38.15634 | -7.92214 | 1912 ft | 151 kts | 190° |
| 2026-04-14 22:57 | 38.14591 | -7.92356 | 1702 ft | 151 kts | 191° |
| 2026-04-14 22:57 | 38.13553 | -7.92495 | 1479 ft | 149 kts | 189° |
| 2026-04-14 22:57 | 38.12530 | -7.92627 | 1268 ft | 147 kts | 188° |
| 2026-04-14 22:57 | 38.11524 | -7.92764 | 1060 ft | 144 kts | 189° |
| 2026-04-14 22:58 | 38.10566 | -7.92892 | 916 ft | 138 kts | 188° |
| 2026-04-14 22:58 | 38.09616 | -7.93012 | 732 ft | 137 kts | 188° |
| 2026-04-14 22:58 | 38.08690 | -7.93130 | 632 ft | 126 kts | 188° |
| 2026-04-14 22:58 | 38.07983 | -7.93231 | 639 ft | 76 kts | 185° |
| 2026-04-14 22:59 | 38.07639 | -7.93276 | 639 ft | 35 kts | 185° |
| 2026-04-14 22:59 | 38.07404 | -7.93303 | 638 ft | 33 kts | 185° |
| 2026-04-14 22:59 | 38.07180 | -7.93331 | 633 ft | 32 kts | 186° |
| 2026-04-14 22:59 | 38.06959 | -7.93362 | 631 ft | 32 kts | 186° |
| 2026-04-14 23:00 | 38.06773 | -7.93387 | 640 ft | 26 kts | 185° |
| 2026-04-14 23:00 | 38.06626 | -7.93405 | 639 ft | 21 kts | 186° |
| 2026-04-14 23:00 | 38.06509 | -7.93420 | 637 ft | 18 kts | 185° |
| 2026-04-14 23:00 | 38.06419 | -7.93431 | 634 ft | 12 kts | 187° |
| 2026-04-14 23:01 | 38.06370 | -7.93494 | 642 ft | 12 kts | 253° |
| 2026-04-14 23:01 | 38.06369 | -7.93573 | 637 ft | 0 kts | 277° |
| 2026-04-14 23:02 | 38.06370 | -7.93584 | 641 ft | 0 kts | 277° |
| 2026-04-14 23:05 | 38.06373 | -7.93608 | 640 ft | 6 kts | 278° |
| 2026-04-14 23:05 | 38.06383 | -7.93675 | 639 ft | 9 kts | 294° |
| 2026-04-14 23:05 | 38.06431 | -7.93750 | 638 ft | 13 kts | 317° |
| 2026-04-14 23:05 | 38.06500 | -7.93824 | 642 ft | 9 kts | 321° |
| 2026-04-14 23:06 | 38.06537 | -7.93863 | 634 ft | 4 kts | 299° |
| 2026-04-14 23:06 | 38.06541 | -7.93906 | 637 ft | 5 kts | 249° |
| 2026-04-14 23:06 | 38.06531 | -7.93924 | 636 ft | 0 kts | 229° |
| 2026-04-14 23:06 | 38.06525 | -7.93932 | 624 ft | 1 kts | 230° |
| 2026-04-14 23:07 | 38.06521 | -7.93939 | 619 ft | 1 kts | 231° |
| 2026-04-14 23:07 | 38.06517 | -7.93945 | 614 ft | 0 kts | 230° |
| 2026-04-14 23:07 | 38.06514 | -7.93949 | 632 ft | 0 kts | 230° |